createdAt,value
2022-12-28T00:01:48.345Z,3.56
2022-12-28T00:04:20.201Z,3.56
2022-12-28T00:06:52.931Z,3.56
2022-12-28T00:09:24.806Z,3.60
2022-12-28T00:11:56.359Z,3.66
2022-12-28T00:14:28.147Z,3.64
2022-12-28T00:16:59.755Z,3.72
2022-12-28T00:19:31.255Z,3.73
2022-12-28T00:22:02.787Z,3.73
2022-12-28T00:24:35.340Z,3.79
2022-12-28T00:27:06.913Z,3.82
2022-12-28T00:29:38.908Z,3.81
2022-12-28T00:32:10.409Z,3.85
2022-12-28T00:34:41.901Z,3.86
2022-12-28T00:37:13.518Z,3.91
2022-12-28T00:39:45.058Z,3.91
2022-12-28T00:42:16.613Z,3.95
2022-12-28T00:44:48.483Z,4.02
2022-12-28T00:47:19.993Z,4.07
2022-12-28T00:49:51.771Z,4.04
2022-12-28T00:52:23.247Z,4.10
2022-12-28T00:54:55.169Z,4.04
2022-12-28T00:57:26.708Z,4.03
2022-12-28T00:59:58.554Z,4.01
2022-12-28T01:02:30.157Z,4.01
2022-12-28T01:05:01.717Z,4.02
2022-12-28T01:07:33.187Z,4.01
2022-12-28T01:10:04.733Z,4.04
2022-12-28T01:12:38.272Z,4.06
2022-12-28T01:15:10.418Z,4.06
2022-12-28T01:17:41.983Z,4.06
2022-12-28T01:20:13.951Z,4.06
2022-12-28T01:22:45.460Z,4.07
2022-12-28T01:25:17.252Z,4.07
2022-12-28T01:27:48.795Z,4.07
2022-12-28T01:30:20.643Z,4.01
2022-12-28T01:32:52.146Z,4.03
2022-12-28T01:35:23.964Z,4.00
2022-12-28T01:37:55.442Z,4.03
2022-12-28T01:40:27.439Z,4.06
2022-12-28T01:42:58.925Z,3.99
2022-12-28T01:45:30.863Z,4.03
2022-12-28T01:48:02.345Z,3.99
2022-12-28T01:50:34.166Z,3.93
2022-12-28T01:53:05.665Z,3.84
2022-12-28T01:55:37.482Z,3.80
2022-12-28T01:58:08.999Z,3.80
2022-12-28T02:00:40.951Z,3.71
2022-12-28T02:03:12.501Z,3.70
2022-12-28T02:05:44.507Z,3.65
2022-12-28T02:08:16.001Z,3.59
2022-12-28T02:10:47.913Z,3.54
2022-12-28T02:13:19.414Z,3.44
2022-12-28T02:15:51.223Z,3.42
2022-12-28T02:18:22.689Z,3.38
2022-12-28T02:20:54.580Z,3.40
2022-12-28T02:23:26.134Z,3.33
2022-12-28T02:25:58.098Z,3.38
2022-12-28T02:28:29.652Z,3.29
2022-12-28T02:31:01.603Z,3.28
2022-12-28T02:33:33.221Z,3.27
2022-12-28T02:36:05.093Z,3.30
2022-12-28T02:38:36.570Z,3.24
2022-12-28T02:41:08.443Z,3.27
2022-12-28T02:43:39.938Z,3.26
2022-12-28T02:46:30.440Z,3.23
2022-12-28T02:49:34.689Z,3.22
2022-12-28T02:52:06.207Z,3.19
2022-12-28T02:54:56.718Z,3.18
2022-12-28T02:57:28.232Z,3.13
2022-12-28T03:00:00.111Z,3.10
2022-12-28T03:02:31.789Z,3.13
2022-12-28T03:05:03.748Z,3.11
2022-12-28T03:07:53.899Z,3.04
2022-12-28T03:10:25.746Z,3.04
2022-12-28T03:12:57.229Z,3.02
2022-12-28T03:15:31.685Z,3.05
2022-12-28T03:18:21.864Z,3.01
2022-12-28T03:21:12.261Z,2.98
2022-12-28T03:24:02.513Z,3.03
2022-12-28T03:26:52.672Z,2.98
2022-12-28T03:29:42.763Z,2.99
2022-12-28T03:32:14.228Z,3.00
2022-12-28T03:34:46.058Z,3.02
2022-12-28T03:37:17.560Z,3.01
2022-12-28T03:39:49.540Z,2.98
2022-12-28T03:42:39.563Z,2.98
2022-12-28T03:45:11.426Z,2.94
2022-12-28T03:47:42.899Z,2.94
2022-12-28T03:50:14.826Z,2.93
2022-12-28T03:52:46.311Z,2.89
2022-12-28T03:55:18.138Z,2.88
2022-12-28T03:57:49.636Z,2.90
2022-12-28T04:00:21.135Z,2.90
2022-12-28T04:02:52.782Z,2.88
2022-12-28T04:05:24.475Z,2.88
2022-12-28T04:07:56.208Z,2.88
2022-12-28T04:10:27.749Z,2.91
2022-12-28T04:12:59.528Z,2.89
2022-12-28T04:15:31.066Z,2.86
2022-12-28T04:18:02.766Z,2.89
2022-12-28T04:20:34.236Z,2.88
2022-12-28T04:23:05.946Z,2.86
2022-12-28T04:25:37.460Z,2.86
2022-12-28T04:28:09.193Z,2.86
2022-12-28T04:30:40.692Z,2.85
2022-12-28T04:33:12.392Z,2.89
2022-12-28T04:35:43.873Z,2.95
2022-12-28T04:38:15.946Z,2.94
2022-12-28T04:40:47.539Z,2.93
2022-12-28T04:43:19.377Z,2.96
2022-12-28T04:45:50.854Z,2.97
2022-12-28T04:48:22.384Z,2.96
2022-12-28T04:50:53.868Z,2.96
2022-12-28T04:53:25.577Z,2.97
2022-12-28T04:55:59.232Z,2.97
2022-12-28T04:58:30.976Z,3.02
2022-12-28T05:01:02.550Z,2.99
2022-12-28T05:03:34.470Z,3.01
2022-12-28T05:06:06.510Z,3.00
2022-12-28T05:08:38.028Z,2.97
2022-12-28T05:11:09.844Z,2.99
2022-12-28T05:13:41.356Z,3.00
2022-12-28T05:16:12.918Z,3.06
2022-12-28T05:18:44.542Z,3.07
2022-12-28T05:21:16.430Z,3.05
2022-12-28T05:23:47.954Z,3.08
2022-12-28T05:26:19.849Z,3.07
2022-12-28T05:28:51.358Z,3.09
2022-12-28T05:31:23.409Z,3.14
2022-12-28T05:33:54.971Z,3.13
2022-12-28T05:36:26.702Z,3.10
2022-12-28T05:38:58.363Z,3.16
2022-12-28T05:41:30.087Z,3.14
2022-12-28T05:44:01.640Z,3.18
2022-12-28T05:46:33.579Z,3.19
2022-12-28T05:49:05.064Z,3.18
2022-12-28T05:51:39.557Z,3.18
2022-12-28T05:54:11.428Z,3.21
2022-12-28T05:56:44.172Z,3.23
2022-12-28T05:59:15.731Z,3.26
2022-12-28T06:01:47.898Z,3.30
2022-12-28T06:04:19.565Z,3.31
2022-12-28T06:06:51.570Z,3.33
2022-12-28T06:09:23.054Z,3.34
2022-12-28T06:11:54.855Z,3.38
2022-12-28T06:14:26.362Z,3.37
2022-12-28T06:16:58.297Z,3.43
2022-12-28T06:19:29.927Z,3.45
2022-12-28T06:22:01.740Z,3.44
2022-12-28T06:24:33.229Z,3.50
2022-12-28T06:27:04.994Z,3.49
2022-12-28T06:29:36.459Z,3.55
2022-12-28T06:32:08.381Z,3.59
2022-12-28T06:34:39.959Z,3.64
2022-12-28T06:37:11.817Z,3.66
2022-12-28T06:39:43.317Z,3.70
2022-12-28T06:42:15.144Z,3.71
2022-12-28T06:44:46.951Z,3.73
2022-12-28T06:47:18.871Z,3.71
2022-12-28T06:49:50.395Z,3.71
2022-12-28T06:52:22.382Z,3.69
2022-12-28T06:54:53.876Z,3.62
2022-12-28T06:57:25.378Z,3.61
2022-12-28T06:59:56.852Z,3.58
2022-12-28T07:02:28.767Z,3.55
2022-12-28T07:05:00.355Z,3.36
2022-12-28T07:07:32.110Z,3.60
2022-12-28T07:10:04.357Z,3.65
2022-12-28T07:12:35.884Z,3.57
2022-12-28T07:15:07.380Z,3.56
2022-12-28T07:17:39.140Z,3.58
2022-12-28T07:20:10.679Z,3.60
2022-12-28T07:22:42.185Z,3.61
2022-12-28T07:25:13.703Z,3.63
2022-12-28T07:27:45.681Z,3.65
2022-12-28T07:30:17.164Z,3.72
2022-12-28T07:32:48.765Z,3.69
2022-12-28T07:35:20.317Z,3.72
2022-12-28T07:37:52.092Z,3.70
2022-12-28T07:40:23.588Z,3.78
2022-12-28T07:42:55.418Z,3.86
2022-12-28T07:45:26.955Z,3.81
2022-12-28T07:47:58.860Z,3.84
2022-12-28T07:50:37.515Z,3.87
2022-12-28T07:53:09.734Z,3.90
2022-12-28T07:55:41.240Z,3.92
2022-12-28T07:58:13.147Z,3.97
2022-12-28T08:00:44.635Z,3.97
2022-12-28T08:03:16.568Z,4.00
2022-12-28T08:05:48.078Z,4.00
2022-12-28T08:08:19.925Z,4.04
2022-12-28T08:10:51.413Z,4.03
2022-12-28T08:13:23.262Z,4.04
2022-12-28T08:15:54.899Z,4.07
2022-12-28T08:18:26.732Z,4.12
2022-12-28T08:20:58.243Z,4.15
2022-12-28T08:23:29.849Z,4.22
2022-12-28T08:26:01.343Z,4.26
2022-12-28T08:28:33.171Z,4.29
2022-12-28T08:31:04.684Z,4.36
2022-12-28T08:33:36.653Z,4.42
2022-12-28T08:36:09.095Z,4.43
2022-12-28T08:38:40.671Z,4.42
2022-12-28T08:41:12.523Z,4.56
2022-12-28T08:43:43.988Z,4.66
2022-12-28T08:46:17.015Z,4.76
2022-12-28T08:48:48.653Z,4.70
2022-12-28T08:51:20.424Z,4.83
2022-12-28T08:53:51.907Z,4.87
2022-12-28T08:56:23.751Z,4.85
2022-12-28T08:58:55.256Z,4.92
2022-12-28T09:01:27.415Z,4.98
2022-12-28T09:03:58.983Z,5.06
2022-12-28T09:06:30.766Z,5.25
2022-12-28T09:09:06.200Z,5.23
2022-12-28T09:11:38.537Z,5.31
2022-12-28T09:14:10.050Z,5.26
2022-12-28T09:16:41.885Z,5.25
2022-12-28T09:19:13.445Z,5.30
2022-12-28T09:21:45.642Z,5.22
2022-12-28T09:24:17.133Z,5.36
2022-12-28T09:26:48.758Z,5.30
2022-12-28T09:29:20.254Z,5.43
2022-12-28T09:31:52.069Z,5.40
2022-12-28T09:34:35.711Z,5.43
2022-12-28T09:37:08.971Z,5.27
2022-12-28T09:39:40.451Z,5.33
2022-12-28T09:42:12.363Z,5.41
2022-12-28T09:44:43.889Z,5.37
2022-12-28T09:47:17.614Z,5.36
2022-12-28T09:49:49.184Z,5.43
2022-12-28T09:52:21.176Z,5.49
2022-12-28T09:54:52.702Z,5.54
2022-12-28T09:57:24.425Z,5.55
2022-12-28T09:59:55.971Z,5.58
2022-12-28T10:02:27.984Z,5.57
2022-12-28T10:04:59.601Z,5.63
2022-12-28T10:07:31.125Z,5.71
2022-12-28T10:10:02.605Z,5.79
2022-12-28T10:12:34.607Z,5.85
2022-12-28T10:15:06.275Z,5.82
2022-12-28T10:17:37.789Z,5.93
2022-12-28T10:20:09.266Z,6.00
2022-12-28T10:22:46.398Z,6.06
2022-12-28T10:25:21.231Z,6.14
2022-12-28T10:27:53.049Z,6.25
2022-12-28T10:30:26.999Z,6.20
2022-12-28T10:33:02.989Z,6.30
2022-12-28T10:35:35.036Z,6.40
2022-12-28T10:38:07.718Z,6.38
2022-12-28T10:40:39.618Z,6.28
2022-12-28T10:43:11.421Z,6.40
2022-12-28T10:45:43.002Z,6.39
2022-12-28T10:48:14.987Z,6.24
2022-12-28T10:50:46.585Z,6.34
2022-12-28T10:53:18.428Z,6.36
2022-12-28T10:55:49.955Z,6.45
2022-12-28T10:58:31.133Z,6.44
2022-12-28T11:01:03.729Z,6.39
2022-12-28T11:03:36.102Z,6.42
2022-12-28T11:06:07.624Z,6.57
2022-12-28T11:08:40.092Z,6.55
2022-12-28T11:11:11.617Z,6.73
2022-12-28T11:13:43.508Z,6.86
2022-12-28T11:16:15.174Z,6.96
2022-12-28T11:18:47.104Z,7.05
2022-12-28T11:21:18.591Z,7.08
2022-12-28T11:23:50.642Z,7.02
2022-12-28T11:26:22.222Z,7.03
2022-12-28T11:28:54.246Z,7.10
2022-12-28T11:31:25.776Z,7.11
2022-12-28T11:33:57.706Z,7.22
2022-12-28T11:36:29.219Z,7.29
2022-12-28T11:39:01.131Z,7.43
2022-12-28T11:41:34.061Z,7.50
2022-12-28T11:44:05.934Z,7.50
2022-12-28T11:46:37.483Z,7.33
2022-12-28T11:49:09.508Z,7.46
2022-12-28T11:51:41.103Z,7.51
2022-12-28T11:54:14.220Z,7.44
2022-12-28T11:56:45.738Z,7.43
2022-12-28T11:59:17.771Z,7.48
2022-12-28T12:01:49.395Z,7.46
2022-12-28T12:04:21.007Z,7.44
2022-12-28T12:06:52.599Z,7.51
2022-12-28T12:09:25.974Z,7.57
2022-12-28T12:11:59.061Z,7.56
2022-12-28T12:14:30.923Z,7.63
2022-12-28T12:17:05.579Z,7.65
2022-12-28T12:19:38.306Z,7.67
2022-12-28T12:22:09.827Z,7.83
2022-12-28T12:24:41.704Z,7.97
2022-12-28T12:27:14.392Z,8.18
2022-12-28T12:29:46.391Z,8.39
2022-12-28T12:32:17.902Z,8.33
2022-12-28T12:34:49.454Z,8.39
2022-12-28T12:37:20.962Z,8.27
2022-12-28T12:39:52.904Z,8.22
2022-12-28T12:42:24.528Z,8.31
2022-12-28T12:44:56.261Z,8.34
2022-12-28T12:47:28.055Z,8.36
2022-12-28T12:49:59.634Z,8.43
2022-12-28T12:52:31.290Z,8.33
2022-12-28T12:55:02.814Z,8.58
2022-12-28T12:57:34.779Z,8.52
2022-12-28T13:00:06.735Z,8.57
2022-12-28T13:02:38.779Z,8.83
2022-12-28T13:05:10.447Z,9.11
2022-12-28T13:07:42.399Z,9.00
2022-12-28T13:10:13.969Z,8.61
2022-12-28T13:12:45.822Z,8.83
2022-12-28T13:15:17.366Z,8.60
2022-12-28T13:17:50.144Z,8.70
2022-12-28T13:20:23.611Z,8.94
2022-12-28T13:22:56.355Z,8.53
2022-12-28T13:25:28.010Z,8.51
2022-12-28T13:27:59.895Z,8.46
2022-12-28T13:30:31.473Z,8.43
2022-12-28T13:33:03.667Z,8.21
2022-12-28T13:35:35.215Z,8.28
2022-12-28T13:38:07.398Z,8.29
2022-12-28T13:40:38.873Z,8.39
2022-12-28T13:43:12.048Z,8.46
2022-12-28T13:45:49.173Z,8.55
2022-12-28T13:48:22.717Z,8.57
2022-12-28T13:50:54.691Z,8.70
2022-12-28T13:53:26.707Z,8.71
2022-12-28T13:55:58.252Z,8.56
2022-12-28T13:58:30.085Z,8.58
2022-12-28T14:01:01.649Z,8.50
2022-12-28T14:03:39.375Z,8.30
2022-12-28T14:06:12.240Z,8.25
2022-12-28T14:08:43.741Z,8.13
2022-12-28T14:11:15.242Z,8.07
2022-12-28T14:13:47.103Z,7.94
2022-12-28T14:16:18.834Z,7.85
2022-12-28T14:18:50.872Z,7.80
2022-12-28T14:21:22.356Z,7.79
2022-12-28T14:23:54.211Z,7.73
2022-12-28T14:26:25.742Z,7.70
2022-12-28T14:28:57.862Z,7.62
2022-12-28T14:31:29.387Z,7.57
2022-12-28T14:34:01.033Z,7.53
2022-12-28T14:36:32.616Z,7.48
2022-12-28T14:39:05.537Z,7.46
2022-12-28T14:41:38.338Z,7.45
2022-12-28T14:44:10.011Z,7.36
2022-12-28T14:46:42.726Z,7.36
2022-12-28T14:49:14.349Z,7.36
2022-12-28T14:51:45.878Z,7.39
2022-12-28T14:54:17.888Z,7.42
2022-12-28T14:56:49.499Z,7.44
2022-12-28T14:59:21.484Z,7.39
2022-12-28T15:01:53.127Z,7.42
2022-12-28T15:04:24.680Z,7.42
2022-12-28T15:06:56.222Z,7.41
2022-12-28T15:09:27.748Z,7.42
2022-12-28T15:11:59.836Z,7.37
2022-12-28T15:14:33.273Z,7.30
2022-12-28T15:17:04.929Z,7.31
2022-12-28T15:19:36.906Z,7.30
2022-12-28T15:22:08.447Z,7.29
2022-12-28T15:24:41.758Z,7.24
2022-12-28T15:27:13.361Z,7.22
2022-12-28T15:30:05.104Z,7.27
2022-12-28T15:32:36.686Z,7.28
2022-12-28T15:35:08.219Z,7.30
2022-12-28T15:37:39.767Z,7.34
2022-12-28T15:40:11.692Z,7.34
2022-12-28T15:42:43.197Z,7.37
2022-12-28T15:45:14.760Z,7.43
2022-12-28T15:47:46.270Z,7.46
2022-12-28T15:50:18.035Z,6.85
2022-12-28T15:52:49.610Z,7.53
2022-12-28T15:55:21.559Z,7.60
2022-12-28T15:57:53.075Z,7.60
2022-12-28T16:00:24.893Z,7.62
2022-12-28T16:02:56.936Z,7.66
2022-12-28T16:05:28.985Z,7.63
2022-12-28T16:08:00.515Z,7.64
2022-12-28T16:10:32.392Z,7.67
2022-12-28T16:13:04.085Z,7.61
2022-12-28T16:15:35.859Z,7.63
2022-12-28T16:18:09.628Z,7.59
2022-12-28T16:20:41.513Z,7.62
2022-12-28T16:23:13.062Z,7.63
2022-12-28T16:25:44.934Z,7.69
2022-12-28T16:28:16.545Z,7.69
2022-12-28T16:30:48.788Z,7.72
2022-12-28T16:33:20.395Z,7.73
2022-12-28T16:35:57.711Z,7.75
2022-12-28T16:38:31.531Z,7.78
2022-12-28T16:41:03.094Z,7.74
2022-12-28T16:43:34.973Z,7.73
2022-12-28T16:46:06.674Z,7.73
2022-12-28T16:48:38.677Z,7.75
2022-12-28T16:51:10.250Z,7.77
2022-12-28T16:53:42.230Z,7.73
2022-12-28T16:56:13.782Z,7.74
2022-12-28T16:58:49.092Z,7.76
2022-12-28T17:01:21.273Z,7.78
2022-12-28T17:03:54.513Z,7.72
2022-12-28T17:06:27.892Z,7.66
2022-12-28T17:08:59.575Z,7.57
2022-12-28T17:11:31.280Z,7.56
2022-12-28T17:14:03.072Z,7.52
2022-12-28T17:16:34.700Z,7.52
2022-12-28T17:19:06.447Z,7.53
2022-12-28T17:21:38.061Z,7.50
2022-12-28T17:24:10.038Z,7.47
2022-12-28T17:26:41.569Z,7.41
2022-12-28T17:29:13.460Z,7.40
2022-12-28T17:31:45.280Z,7.41
2022-12-28T17:34:16.902Z,7.40
2022-12-28T17:36:48.479Z,7.44
2022-12-28T17:39:20.316Z,7.44
2022-12-28T17:41:51.897Z,7.51
2022-12-28T17:44:23.828Z,7.52
2022-12-28T17:46:55.367Z,7.56
2022-12-28T17:49:27.314Z,7.58
2022-12-28T17:51:58.887Z,7.59
2022-12-28T17:54:30.729Z,7.61
2022-12-28T17:57:02.323Z,7.68
2022-12-28T17:59:33.919Z,7.72
2022-12-28T18:02:10.006Z,7.73
2022-12-28T18:04:41.968Z,7.74
2022-12-28T18:07:13.493Z,7.74
2022-12-28T18:09:45.387Z,7.77
2022-12-28T18:12:17.031Z,7.79
2022-12-28T18:14:48.671Z,7.79
2022-12-28T18:17:23.331Z,7.83
2022-12-28T18:19:56.430Z,7.80
2022-12-28T18:22:28.103Z,7.78
2022-12-28T18:25:00.037Z,7.74
2022-12-28T18:27:31.585Z,7.79
2022-12-28T18:30:03.485Z,7.77
2022-12-28T18:32:35.042Z,7.73
2022-12-28T18:35:06.927Z,7.76
2022-12-28T18:37:38.518Z,7.75
2022-12-28T18:40:10.446Z,7.67
2022-12-28T18:42:42.024Z,7.68
2022-12-28T18:45:13.904Z,7.63
2022-12-28T18:47:45.500Z,7.65
2022-12-28T18:50:17.950Z,7.63
2022-12-28T18:52:50.199Z,7.64
2022-12-28T18:55:22.150Z,7.65
2022-12-28T18:57:53.755Z,7.71
2022-12-28T19:00:25.648Z,7.66
2022-12-28T19:02:57.366Z,7.63
2022-12-28T19:05:29.368Z,7.60
2022-12-28T19:08:01.206Z,7.57
2022-12-28T19:10:33.012Z,7.49
2022-12-28T19:13:04.555Z,7.45
2022-12-28T19:15:36.498Z,7.37
2022-12-28T19:18:08.050Z,7.33
2022-12-28T19:20:39.886Z,7.28
2022-12-28T19:23:11.464Z,7.26
2022-12-28T19:25:43.424Z,7.25
2022-12-28T19:28:14.964Z,7.22
2022-12-28T19:30:46.867Z,7.20
2022-12-28T19:33:18.491Z,7.21
2022-12-28T19:35:50.111Z,7.16
2022-12-28T19:38:21.611Z,7.14
2022-12-28T19:40:53.487Z,7.16
2022-12-28T19:43:25.025Z,7.14
2022-12-28T19:45:56.890Z,7.13
2022-12-28T19:48:28.423Z,7.12
2022-12-28T19:51:00.402Z,7.11
2022-12-28T19:53:31.946Z,7.10
2022-12-28T19:56:03.743Z,7.12
2022-12-28T19:58:35.351Z,7.10
2022-12-28T20:01:07.333Z,7.05
2022-12-28T20:03:39.107Z,7.01
2022-12-28T20:06:11.303Z,6.99
2022-12-28T20:08:42.850Z,6.94
2022-12-28T20:11:14.741Z,7.00
2022-12-28T20:13:46.275Z,7.00
2022-12-28T20:16:18.346Z,7.04
2022-12-28T20:18:49.916Z,7.00
2022-12-28T20:21:22.256Z,7.00
2022-12-28T20:23:53.861Z,7.00
2022-12-28T20:26:27.307Z,7.03
2022-12-28T20:28:58.884Z,7.05
2022-12-28T20:31:31.382Z,7.01
2022-12-28T20:34:02.951Z,7.01
2022-12-28T20:36:34.671Z,6.97
2022-12-28T20:39:06.236Z,6.96
2022-12-28T20:41:56.759Z,6.98
2022-12-28T20:44:30.022Z,6.99
2022-12-28T20:47:04.870Z,7.05
2022-12-28T20:49:36.487Z,7.04
2022-12-28T20:52:08.484Z,7.05
2022-12-28T20:54:40.005Z,7.11
2022-12-28T20:57:11.784Z,7.08
2022-12-28T20:59:43.330Z,7.09
2022-12-28T21:02:16.311Z,7.10
2022-12-28T21:04:48.221Z,7.09
2022-12-28T21:07:19.760Z,7.13
2022-12-28T21:09:51.870Z,7.12
2022-12-28T21:12:23.388Z,7.10
2022-12-28T21:14:54.991Z,7.12
2022-12-28T21:17:26.515Z,7.14
2022-12-28T21:19:58.135Z,7.13
2022-12-28T21:22:29.666Z,7.09
2022-12-28T21:25:01.204Z,7.09
2022-12-28T21:27:32.721Z,7.07
2022-12-28T21:30:04.717Z,7.06
2022-12-28T21:32:36.331Z,7.04
2022-12-28T21:35:07.881Z,7.09
2022-12-28T21:37:39.404Z,7.08
2022-12-28T21:40:11.925Z,7.11
2022-12-28T21:42:43.494Z,7.12
2022-12-28T21:45:15.438Z,7.13
2022-12-28T21:47:46.941Z,7.11
2022-12-28T21:50:18.858Z,7.15
2022-12-28T21:52:50.412Z,7.15
2022-12-28T21:55:40.730Z,7.17
2022-12-28T21:58:12.254Z,7.18
2022-12-28T22:01:02.832Z,7.22
2022-12-28T22:03:53.365Z,7.25
2022-12-28T22:06:24.900Z,7.29
2022-12-28T22:09:15.124Z,7.29
2022-12-28T22:12:05.470Z,7.32
2022-12-28T22:14:37.093Z,7.37
2022-12-28T22:17:14.117Z,7.39
2022-12-28T22:19:46.067Z,7.45
2022-12-28T22:22:17.970Z,7.48
2022-12-28T22:24:49.570Z,7.50
2022-12-28T22:27:21.453Z,7.51
2022-12-28T22:29:53.087Z,7.57
2022-12-28T22:32:24.903Z,7.53
2022-12-28T22:34:56.464Z,7.57
2022-12-28T22:37:28.215Z,7.61
2022-12-28T22:39:59.779Z,7.65
2022-12-28T22:42:31.604Z,7.71
2022-12-28T22:45:03.132Z,7.73
2022-12-28T22:47:34.988Z,7.78
2022-12-28T22:50:06.607Z,7.80
2022-12-28T22:52:38.514Z,7.85
2022-12-28T22:55:10.070Z,7.89
2022-12-28T22:57:42.100Z,7.91
2022-12-28T23:00:13.647Z,7.88
2022-12-28T23:02:46.348Z,7.86
2022-12-28T23:05:18.115Z,7.88
2022-12-28T23:07:49.967Z,7.88
2022-12-28T23:10:22.480Z,7.83
2022-12-28T23:12:53.994Z,7.79
2022-12-28T23:15:25.909Z,7.77
2022-12-28T23:18:17.408Z,7.68
2022-12-28T23:21:08.373Z,7.67
2022-12-28T23:23:58.600Z,7.68
2022-12-28T23:26:49.080Z,7.62
2022-12-28T23:29:24.291Z,7.60
2022-12-28T23:31:59.330Z,7.57
2022-12-28T23:34:30.860Z,7.54
2022-12-28T23:37:02.828Z,7.59
2022-12-28T23:39:34.442Z,7.50
2022-12-28T23:42:06.337Z,7.46
2022-12-28T23:44:37.872Z,7.40
2022-12-28T23:47:09.724Z,7.38
2022-12-28T23:49:41.233Z,7.38
2022-12-28T23:52:13.072Z,7.42
2022-12-28T23:54:44.690Z,7.44
2022-12-28T23:57:16.508Z,7.41
2022-12-28T23:59:48.052Z,7.38
